Akaska, South Dakota
Current Conditions -  °F | °C
As of 3:52 AM on Saturday 20 Dec 2014 (Local Time) from KMBG Reporting Station
Clear Clear  
Wind Chill: 10°   Ceiling: Unl
Heat Index: 19°   Visibility: 8mi
Dew Point: 15°   Wind: 7mph
Humidity: 85%   Direction: 120°ESE
Pressure: 29.91"   Gusts: NA
Location:  45.33°N, 100.12°W
Report Text: KMBG 200952Z AUTO 12006KT 8SM CLR M07/M09 A2991 RMK AO2 SLP151 I1000 T10721094
Loading
Personal Weather Stations






























Interactive Weather Map New forecast layout! Learn more

10-Day Weather Forecast

Advertisements
Track Severe Weather on mobile